sensor_id;sensor_type;location;lat;lon;timestamp;P1;durP1;ratioP1;P2;durP2;ratioP2
37097;SDS011;63608;49.572;12.348;2022-12-13T00:01:32;4.30;;;4.00;;
37097;SDS011;63608;49.572;12.348;2022-12-13T00:03:37;4.30;;;4.00;;
37097;SDS011;63608;49.572;12.348;2022-12-13T00:05:44;3.70;;;3.40;;
37097;SDS011;63608;49.572;12.348;2022-12-13T00:07:49;5.00;;;3.90;;
37097;SDS011;63608;49.572;12.348;2022-12-13T00:09:51;4.00;;;3.70;;
37097;SDS011;63608;49.572;12.348;2022-12-13T00:11:57;4.20;;;3.57;;
37097;SDS011;63608;49.572;12.348;2022-12-13T00:14:04;3.90;;;3.50;;
37097;SDS011;63608;49.572;12.348;2022-12-13T00:16:07;4.40;;;4.00;;
37097;SDS011;63608;49.572;12.348;2022-12-13T00:18:13;4.13;;;3.67;;
37097;SDS011;63608;49.572;12.348;2022-12-13T00:20:16;4.07;;;3.77;;
37097;SDS011;63608;49.572;12.348;2022-12-13T00:22:18;4.40;;;3.53;;
37097;SDS011;63608;49.572;12.348;2022-12-13T00:24:22;3.30;;;3.10;;
37097;SDS011;63608;49.572;12.348;2022-12-13T00:26:25;3.80;;;3.50;;
37097;SDS011;63608;49.572;12.348;2022-12-13T00:28:28;5.13;;;3.73;;
37097;SDS011;63608;49.572;12.348;2022-12-13T00:30:31;4.03;;;3.40;;
37097;SDS011;63608;49.572;12.348;2022-12-13T00:32:34;3.77;;;3.47;;
37097;SDS011;63608;49.572;12.348;2022-12-13T00:34:39;3.30;;;3.00;;
37097;SDS011;63608;49.572;12.348;2022-12-13T00:36:42;3.40;;;3.20;;
37097;SDS011;63608;49.572;12.348;2022-12-13T00:38:53;3.20;;;3.00;;
37097;SDS011;63608;49.572;12.348;2022-12-13T00:41:15;3.40;;;3.10;;
37097;SDS011;63608;49.572;12.348;2022-12-13T00:43:20;3.27;;;3.00;;
37097;SDS011;63608;49.572;12.348;2022-12-13T00:45:24;3.57;;;3.23;;
37097;SDS011;63608;49.572;12.348;2022-12-13T00:47:27;3.37;;;3.10;;
37097;SDS011;63608;49.572;12.348;2022-12-13T00:49:35;3.50;;;3.20;;
37097;SDS011;63608;49.572;12.348;2022-12-13T00:51:39;3.43;;;3.20;;
37097;SDS011;63608;49.572;12.348;2022-12-13T00:53:42;3.73;;;3.47;;
37097;SDS011;63608;49.572;12.348;2022-12-13T00:55:47;3.70;;;3.40;;
37097;SDS011;63608;49.572;12.348;2022-12-13T00:57:53;3.50;;;3.20;;
37097;SDS011;63608;49.572;12.348;2022-12-13T00:59:56;4.33;;;3.93;;
37097;SDS011;63608;49.572;12.348;2022-12-13T01:02:02;3.87;;;3.60;;
37097;SDS011;63608;49.572;12.348;2022-12-13T01:04:05;3.80;;;3.50;;
37097;SDS011;63608;49.572;12.348;2022-12-13T01:06:08;3.57;;;3.37;;
37097;SDS011;63608;49.572;12.348;2022-12-13T01:08:11;3.70;;;3.40;;
37097;SDS011;63608;49.572;12.348;2022-12-13T01:10:15;4.37;;;3.80;;
37097;SDS011;63608;49.572;12.348;2022-12-13T01:12:17;4.20;;;3.57;;
37097;SDS011;63608;49.572;12.348;2022-12-13T01:14:22;3.93;;;3.70;;
37097;SDS011;63608;49.572;12.348;2022-12-13T01:16:31;3.70;;;3.40;;
37097;SDS011;63608;49.572;12.348;2022-12-13T01:18:33;4.60;;;3.90;;
37097;SDS011;63608;49.572;12.348;2022-12-13T01:20:37;4.83;;;4.43;;
37097;SDS011;63608;49.572;12.348;2022-12-13T01:22:39;4.63;;;4.00;;
37097;SDS011;63608;49.572;12.348;2022-12-13T01:24:42;4.53;;;4.13;;
37097;SDS011;63608;49.572;12.348;2022-12-13T01:26:44;4.00;;;3.70;;
37097;SDS011;63608;49.572;12.348;2022-12-13T01:28:49;4.20;;;3.83;;
37097;SDS011;63608;49.572;12.348;2022-12-13T01:30:54;4.27;;;3.87;;
37097;SDS011;63608;49.572;12.348;2022-12-13T01:32:58;4.23;;;3.83;;
37097;SDS011;63608;49.572;12.348;2022-12-13T01:35:01;5.07;;;3.80;;
37097;SDS011;63608;49.572;12.348;2022-12-13T01:37:03;4.10;;;3.80;;
37097;SDS011;63608;49.572;12.348;2022-12-13T01:39:10;3.43;;;3.23;;
37097;SDS011;63608;49.572;12.348;2022-12-13T01:41:13;3.20;;;3.00;;
37097;SDS011;63608;49.572;12.348;2022-12-13T01:43:16;3.33;;;3.03;;
37097;SDS011;63608;49.572;12.348;2022-12-13T01:45:20;3.30;;;3.10;;
37097;SDS011;63608;49.572;12.348;2022-12-13T01:47:28;3.70;;;3.40;;
37097;SDS011;63608;49.572;12.348;2022-12-13T01:49:33;2.90;;;2.80;;
37097;SDS011;63608;49.572;12.348;2022-12-13T01:51:40;3.00;;;2.90;;
37097;SDS011;63608;49.572;12.348;2022-12-13T01:53:43;2.90;;;2.80;;
37097;SDS011;63608;49.572;12.348;2022-12-13T01:55:51;2.57;;;2.37;;
37097;SDS011;63608;49.572;12.348;2022-12-13T01:57:56;2.80;;;2.60;;
37097;SDS011;63608;49.572;12.348;2022-12-13T02:00:01;2.90;;;2.70;;
37097;SDS011;63608;49.572;12.348;2022-12-13T02:02:05;2.47;;;2.37;;
37097;SDS011;63608;49.572;12.348;2022-12-13T02:04:11;2.80;;;2.60;;
37097;SDS011;63608;49.572;12.348;2022-12-13T02:06:15;3.17;;;2.87;;
37097;SDS011;63608;49.572;12.348;2022-12-13T02:08:18;3.10;;;2.90;;
37097;SDS011;63608;49.572;12.348;2022-12-13T02:10:21;2.70;;;2.50;;
37097;SDS011;63608;49.572;12.348;2022-12-13T02:12:25;2.50;;;2.30;;
37097;SDS011;63608;49.572;12.348;2022-12-13T02:14:30;2.67;;;2.47;;
37097;SDS011;63608;49.572;12.348;2022-12-13T02:16:36;3.23;;;3.00;;
37097;SDS011;63608;49.572;12.348;2022-12-13T02:18:47;2.83;;;2.63;;
37097;SDS011;63608;49.572;12.348;2022-12-13T02:23:36;3.33;;;3.13;;
37097;SDS011;63608;49.572;12.348;2022-12-13T02:25:51;3.60;;;3.33;;
37097;SDS011;63608;49.572;12.348;2022-12-13T02:28:05;3.63;;;3.33;;
37097;SDS011;63608;49.572;12.348;2022-12-13T02:30:25;2.80;;;2.70;;
37097;SDS011;63608;49.572;12.348;2022-12-13T02:32:33;3.37;;;3.07;;
37097;SDS011;63608;49.572;12.348;2022-12-13T02:34:41;4.30;;;3.17;;
37097;SDS011;63608;49.572;12.348;2022-12-13T02:36:48;3.60;;;3.30;;
37097;SDS011;63608;49.572;12.348;2022-12-13T02:38:58;4.67;;;4.13;;
37097;SDS011;63608;49.572;12.348;2022-12-13T02:41:07;5.53;;;4.30;;
37097;SDS011;63608;49.572;12.348;2022-12-13T02:43:17;5.20;;;4.50;;
37097;SDS011;63608;49.572;12.348;2022-12-13T02:45:25;5.40;;;4.63;;
37097;SDS011;63608;49.572;12.348;2022-12-13T02:47:31;5.77;;;4.27;;
37097;SDS011;63608;49.572;12.348;2022-12-13T02:49:34;5.73;;;4.70;;
37097;SDS011;63608;49.572;12.348;2022-12-13T02:51:38;6.10;;;4.63;;
37097;SDS011;63608;49.572;12.348;2022-12-13T02:53:41;6.80;;;4.90;;
37097;SDS011;63608;49.572;12.348;2022-12-13T02:55:46;6.57;;;4.63;;
37097;SDS011;63608;49.572;12.348;2022-12-13T02:57:48;4.73;;;4.23;;
37097;SDS011;63608;49.572;12.348;2022-12-13T02:59:50;5.23;;;4.33;;
37097;SDS011;63608;49.572;12.348;2022-12-13T03:01:56;4.67;;;4.10;;
37097;SDS011;63608;49.572;12.348;2022-12-13T03:04:05;3.93;;;3.60;;
37097;SDS011;63608;49.572;12.348;2022-12-13T03:06:18;3.93;;;3.57;;
37097;SDS011;63608;49.572;12.348;2022-12-13T03:08:34;3.53;;;3.20;;
37097;SDS011;63608;49.572;12.348;2022-12-13T03:10:47;4.20;;;3.80;;
37097;SDS011;63608;49.572;12.348;2022-12-13T03:12:55;3.83;;;3.50;;
37097;SDS011;63608;49.572;12.348;2022-12-13T03:15:20;4.60;;;3.70;;
37097;SDS011;63608;49.572;12.348;2022-12-13T03:17:26;4.20;;;3.80;;
37097;SDS011;63608;49.572;12.348;2022-12-13T03:19:30;3.90;;;3.57;;
37097;SDS011;63608;49.572;12.348;2022-12-13T03:21:36;4.33;;;4.00;;
37097;SDS011;63608;49.572;12.348;2022-12-13T03:23:39;4.43;;;4.03;;
37097;SDS011;63608;49.572;12.348;2022-12-13T03:25:41;4.20;;;3.80;;
37097;SDS011;63608;49.572;12.348;2022-12-13T03:27:44;4.50;;;3.80;;
37097;SDS011;63608;49.572;12.348;2022-12-13T03:29:47;3.40;;;3.20;;
37097;SDS011;63608;49.572;12.348;2022-12-13T03:31:49;3.30;;;3.07;;
37097;SDS011;63608;49.572;12.348;2022-12-13T03:33:54;3.73;;;3.30;;
37097;SDS011;63608;49.572;12.348;2022-12-13T03:35:59;3.40;;;3.20;;
37097;SDS011;63608;49.572;12.348;2022-12-13T03:38:02;4.03;;;3.60;;
37097;SDS011;63608;49.572;12.348;2022-12-13T03:40:05;4.40;;;3.70;;
37097;SDS011;63608;49.572;12.348;2022-12-13T03:42:12;3.80;;;3.50;;
37097;SDS011;63608;49.572;12.348;2022-12-13T03:44:16;4.20;;;3.80;;
37097;SDS011;63608;49.572;12.348;2022-12-13T03:46:19;3.40;;;3.13;;
37097;SDS011;63608;49.572;12.348;2022-12-13T03:48:23;4.07;;;3.77;;
37097;SDS011;63608;49.572;12.348;2022-12-13T03:50:30;3.90;;;3.60;;
37097;SDS011;63608;49.572;12.348;2022-12-13T03:52:38;3.33;;;3.03;;
37097;SDS011;63608;49.572;12.348;2022-12-13T03:54:41;3.47;;;3.17;;
37097;SDS011;63608;49.572;12.348;2022-12-13T03:56:43;3.20;;;3.00;;
37097;SDS011;63608;49.572;12.348;2022-12-13T03:58:46;3.37;;;3.17;;
37097;SDS011;63608;49.572;12.348;2022-12-13T04:00:49;2.90;;;2.70;;
37097;SDS011;63608;49.572;12.348;2022-12-13T04:02:55;4.20;;;2.67;;
37097;SDS011;63608;49.572;12.348;2022-12-13T04:04:58;2.67;;;2.57;;
37097;SDS011;63608;49.572;12.348;2022-12-13T04:07:02;2.60;;;2.40;;
37097;SDS011;63608;49.572;12.348;2022-12-13T04:09:05;2.80;;;2.60;;
37097;SDS011;63608;49.572;12.348;2022-12-13T04:11:09;2.40;;;2.30;;
37097;SDS011;63608;49.572;12.348;2022-12-13T04:13:28;3.03;;;2.83;;
37097;SDS011;63608;49.572;12.348;2022-12-13T04:15:34;2.50;;;2.40;;
37097;SDS011;63608;49.572;12.348;2022-12-13T04:17:47;2.20;;;2.10;;
37097;SDS011;63608;49.572;12.348;2022-12-13T04:19:50;2.80;;;2.60;;
37097;SDS011;63608;49.572;12.348;2022-12-13T04:21:54;2.93;;;2.73;;
37097;SDS011;63608;49.572;12.348;2022-12-13T04:23:58;3.50;;;3.20;;
37097;SDS011;63608;49.572;12.348;2022-12-13T04:26:02;4.20;;;3.80;;
37097;SDS011;63608;49.572;12.348;2022-12-13T04:28:05;4.60;;;4.20;;
37097;SDS011;63608;49.572;12.348;2022-12-13T04:30:08;4.50;;;4.10;;
37097;SDS011;63608;49.572;12.348;2022-12-13T04:32:11;5.17;;;4.40;;
37097;SDS011;63608;49.572;12.348;2022-12-13T04:34:14;5.40;;;4.87;;
37097;SDS011;63608;49.572;12.348;2022-12-13T04:36:17;5.37;;;4.50;;
37097;SDS011;63608;49.572;12.348;2022-12-13T04:38:24;4.70;;;4.30;;
37097;SDS011;63608;49.572;12.348;2022-12-13T04:40:28;5.70;;;4.80;;
37097;SDS011;63608;49.572;12.348;2022-12-13T04:42:34;4.67;;;4.27;;
37097;SDS011;63608;49.572;12.348;2022-12-13T04:44:37;5.97;;;4.03;;
37097;SDS011;63608;49.572;12.348;2022-12-13T04:46:39;4.30;;;4.00;;
37097;SDS011;63608;49.572;12.348;2022-12-13T04:48:42;4.67;;;4.27;;
37097;SDS011;63608;49.572;12.348;2022-12-13T04:50:53;4.23;;;3.93;;
37097;SDS011;63608;49.572;12.348;2022-12-13T04:52:55;4.57;;;4.10;;
37097;SDS011;63608;49.572;12.348;2022-12-13T04:55:00;5.63;;;4.50;;
37097;SDS011;63608;49.572;12.348;2022-12-13T04:57:16;5.30;;;4.80;;
37097;SDS011;63608;49.572;12.348;2022-12-13T04:59:21;4.87;;;4.37;;
37097;SDS011;63608;49.572;12.348;2022-12-13T05:01:26;4.20;;;3.90;;
37097;SDS011;63608;49.572;12.348;2022-12-13T05:03:29;5.00;;;4.50;;
37097;SDS011;63608;49.572;12.348;2022-12-13T05:05:32;4.00;;;3.60;;
37097;SDS011;63608;49.572;12.348;2022-12-13T05:07:37;3.70;;;3.47;;
37097;SDS011;63608;49.572;12.348;2022-12-13T05:09:39;4.37;;;3.97;;
37097;SDS011;63608;49.572;12.348;2022-12-13T05:11:42;5.17;;;4.40;;
37097;SDS011;63608;49.572;12.348;2022-12-13T05:13:48;3.87;;;3.43;;
37097;SDS011;63608;49.572;12.348;2022-12-13T05:15:55;4.30;;;3.90;;
37097;SDS011;63608;49.572;12.348;2022-12-13T05:17:58;3.80;;;3.50;;
37097;SDS011;63608;49.572;12.348;2022-12-13T05:20:04;4.43;;;4.03;;
37097;SDS011;63608;49.572;12.348;2022-12-13T05:22:09;4.60;;;4.30;;
37097;SDS011;63608;49.572;12.348;2022-12-13T05:24:14;4.20;;;3.90;;
37097;SDS011;63608;49.572;12.348;2022-12-13T05:26:18;3.90;;;3.60;;
37097;SDS011;63608;49.572;12.348;2022-12-13T05:28:20;4.27;;;3.87;;
37097;SDS011;63608;49.572;12.348;2022-12-13T05:30:27;4.03;;;3.70;;
37097;SDS011;63608;49.572;12.348;2022-12-13T05:32:30;4.00;;;3.70;;
37097;SDS011;63608;49.572;12.348;2022-12-13T05:34:33;4.10;;;3.80;;
37097;SDS011;63608;49.572;12.348;2022-12-13T05:36:37;4.67;;;4.27;;
37097;SDS011;63608;49.572;12.348;2022-12-13T05:38:40;4.97;;;4.40;;
37097;SDS011;63608;49.572;12.348;2022-12-13T05:40:47;4.83;;;4.30;;
37097;SDS011;63608;49.572;12.348;2022-12-13T05:42:51;4.30;;;4.00;;
37097;SDS011;63608;49.572;12.348;2022-12-13T05:44:53;4.00;;;3.60;;
37097;SDS011;63608;49.572;12.348;2022-12-13T05:46:57;4.60;;;3.80;;
37097;SDS011;63608;49.572;12.348;2022-12-13T05:49:04;6.90;;;4.20;;
37097;SDS011;63608;49.572;12.348;2022-12-13T05:51:06;4.00;;;3.70;;
37097;SDS011;63608;49.572;12.348;2022-12-13T05:53:09;4.70;;;4.30;;
37097;SDS011;63608;49.572;12.348;2022-12-13T05:55:16;4.43;;;4.03;;
37097;SDS011;63608;49.572;12.348;2022-12-13T05:57:19;4.40;;;4.00;;
37097;SDS011;63608;49.572;12.348;2022-12-13T05:59:21;4.70;;;4.27;;
37097;SDS011;63608;49.572;12.348;2022-12-13T06:01:24;4.53;;;3.97;;
37097;SDS011;63608;49.572;12.348;2022-12-13T06:03:30;4.70;;;4.30;;
37097;SDS011;63608;49.572;12.348;2022-12-13T06:05:33;5.03;;;4.60;;
37097;SDS011;63608;49.572;12.348;2022-12-13T06:07:45;6.43;;;4.40;;
37097;SDS011;63608;49.572;12.348;2022-12-13T06:09:47;4.93;;;4.47;;
37097;SDS011;63608;49.572;12.348;2022-12-13T06:11:54;5.10;;;4.50;;
37097;SDS011;63608;49.572;12.348;2022-12-13T06:13:56;4.83;;;4.33;;
37097;SDS011;63608;49.572;12.348;2022-12-13T06:16:00;5.73;;;4.43;;
37097;SDS011;63608;49.572;12.348;2022-12-13T06:18:03;6.97;;;4.30;;
37097;SDS011;63608;49.572;12.348;2022-12-13T06:20:11;6.17;;;4.03;;
37097;SDS011;63608;49.572;12.348;2022-12-13T06:22:13;4.83;;;4.17;;
37097;SDS011;63608;49.572;12.348;2022-12-13T06:24:17;5.07;;;4.10;;
37097;SDS011;63608;49.572;12.348;2022-12-13T06:26:21;4.67;;;4.23;;
37097;SDS011;63608;49.572;12.348;2022-12-13T06:28:23;4.60;;;4.20;;
37097;SDS011;63608;49.572;12.348;2022-12-13T06:30:27;5.10;;;4.20;;
37097;SDS011;63608;49.572;12.348;2022-12-13T06:32:29;4.90;;;3.93;;
37097;SDS011;63608;49.572;12.348;2022-12-13T06:34:33;5.97;;;4.87;;
37097;SDS011;63608;49.572;12.348;2022-12-13T06:36:37;5.53;;;4.90;;
37097;SDS011;63608;49.572;12.348;2022-12-13T06:38:41;6.50;;;5.40;;
37097;SDS011;63608;49.572;12.348;2022-12-13T06:40:46;8.70;;;5.60;;
37097;SDS011;63608;49.572;12.348;2022-12-13T06:42:48;5.40;;;4.83;;
37097;SDS011;63608;49.572;12.348;2022-12-13T06:44:50;8.10;;;5.57;;
37097;SDS011;63608;49.572;12.348;2022-12-13T06:46:53;6.60;;;5.10;;
37097;SDS011;63608;49.572;12.348;2022-12-13T06:48:57;4.63;;;4.20;;
37097;SDS011;63608;49.572;12.348;2022-12-13T06:50:59;4.83;;;4.40;;
37097;SDS011;63608;49.572;12.348;2022-12-13T06:53:04;6.20;;;4.60;;
37097;SDS011;63608;49.572;12.348;2022-12-13T06:55:07;5.10;;;4.60;;
37097;SDS011;63608;49.572;12.348;2022-12-13T06:57:12;6.57;;;5.30;;
37097;SDS011;63608;49.572;12.348;2022-12-13T06:59:14;5.70;;;4.97;;
37097;SDS011;63608;49.572;12.348;2022-12-13T07:01:17;6.27;;;5.60;;
37097;SDS011;63608;49.572;12.348;2022-12-13T07:03:19;7.70;;;6.13;;
37097;SDS011;63608;49.572;12.348;2022-12-13T07:05:22;7.97;;;5.57;;
37097;SDS011;63608;49.572;12.348;2022-12-13T07:07:30;9.47;;;5.90;;
37097;SDS011;63608;49.572;12.348;2022-12-13T07:09:34;10.87;;;5.87;;
37097;SDS011;63608;49.572;12.348;2022-12-13T07:11:38;8.47;;;6.17;;
37097;SDS011;63608;49.572;12.348;2022-12-13T07:13:40;7.50;;;6.30;;
37097;SDS011;63608;49.572;12.348;2022-12-13T07:15:43;7.77;;;6.00;;
37097;SDS011;63608;49.572;12.348;2022-12-13T07:17:47;8.83;;;6.60;;
37097;SDS011;63608;49.572;12.348;2022-12-13T07:19:50;10.03;;;6.33;;
37097;SDS011;63608;49.572;12.348;2022-12-13T07:21:54;9.37;;;6.93;;
37097;SDS011;63608;49.572;12.348;2022-12-13T07:23:57;8.97;;;6.50;;
37097;SDS011;63608;49.572;12.348;2022-12-13T07:26:03;9.00;;;6.30;;
37097;SDS011;63608;49.572;12.348;2022-12-13T07:28:06;10.03;;;6.40;;
37097;SDS011;63608;49.572;12.348;2022-12-13T07:30:10;7.83;;;5.90;;
37097;SDS011;63608;49.572;12.348;2022-12-13T07:32:13;16.33;;;6.37;;
37097;SDS011;63608;49.572;12.348;2022-12-13T07:34:16;8.20;;;5.60;;
37097;SDS011;63608;49.572;12.348;2022-12-13T07:36:20;6.80;;;6.10;;
37097;SDS011;63608;49.572;12.348;2022-12-13T07:38:24;6.47;;;5.57;;
37097;SDS011;63608;49.572;12.348;2022-12-13T07:40:26;11.73;;;6.30;;
37097;SDS011;63608;49.572;12.348;2022-12-13T07:42:31;10.83;;;6.50;;
37097;SDS011;63608;49.572;12.348;2022-12-13T07:44:38;9.40;;;6.33;;
37097;SDS011;63608;49.572;12.348;2022-12-13T07:46:41;9.53;;;6.50;;
37097;SDS011;63608;49.572;12.348;2022-12-13T07:48:44;11.27;;;7.10;;
37097;SDS011;63608;49.572;12.348;2022-12-13T07:50:46;9.80;;;6.80;;
37097;SDS011;63608;49.572;12.348;2022-12-13T07:52:49;9.90;;;6.30;;
37097;SDS011;63608;49.572;12.348;2022-12-13T07:54:55;11.57;;;6.60;;
37097;SDS011;63608;49.572;12.348;2022-12-13T07:57:01;10.90;;;6.67;;
37097;SDS011;63608;49.572;12.348;2022-12-13T07:59:05;9.77;;;6.30;;
37097;SDS011;63608;49.572;12.348;2022-12-13T08:01:10;9.47;;;6.70;;
37097;SDS011;63608;49.572;12.348;2022-12-13T08:03:12;7.77;;;6.47;;
37097;SDS011;63608;49.572;12.348;2022-12-13T08:05:15;10.07;;;7.07;;
37097;SDS011;63608;49.572;12.348;2022-12-13T08:07:18;11.90;;;6.60;;
37097;SDS011;63608;49.572;12.348;2022-12-13T08:09:20;10.23;;;7.20;;
37097;SDS011;63608;49.572;12.348;2022-12-13T08:11:23;13.07;;;7.50;;
37097;SDS011;63608;49.572;12.348;2022-12-13T08:13:27;15.63;;;7.83;;
37097;SDS011;63608;49.572;12.348;2022-12-13T08:15:31;14.70;;;7.63;;
37097;SDS011;63608;49.572;12.348;2022-12-13T08:17:35;17.20;;;8.37;;
37097;SDS011;63608;49.572;12.348;2022-12-13T08:19:40;12.03;;;7.30;;
37097;SDS011;63608;49.572;12.348;2022-12-13T08:22:01;12.17;;;7.50;;
37097;SDS011;63608;49.572;12.348;2022-12-13T08:24:03;10.80;;;7.07;;
37097;SDS011;63608;49.572;12.348;2022-12-13T08:26:07;11.07;;;7.23;;
37097;SDS011;63608;49.572;12.348;2022-12-13T08:28:10;12.10;;;8.00;;
37097;SDS011;63608;49.572;12.348;2022-12-13T08:30:13;12.73;;;7.37;;
37097;SDS011;63608;49.572;12.348;2022-12-13T08:32:17;11.60;;;7.10;;
37097;SDS011;63608;49.572;12.348;2022-12-13T08:34:20;10.50;;;7.53;;
37097;SDS011;63608;49.572;12.348;2022-12-13T08:36:23;11.77;;;7.67;;
37097;SDS011;63608;49.572;12.348;2022-12-13T08:38:25;13.90;;;8.00;;
37097;SDS011;63608;49.572;12.348;2022-12-13T08:40:28;10.73;;;7.10;;
37097;SDS011;63608;49.572;12.348;2022-12-13T08:42:31;12.53;;;7.03;;
37097;SDS011;63608;49.572;12.348;2022-12-13T08:44:33;12.10;;;7.40;;
37097;SDS011;63608;49.572;12.348;2022-12-13T08:46:35;10.00;;;7.20;;
37097;SDS011;63608;49.572;12.348;2022-12-13T08:48:39;10.80;;;7.10;;
37097;SDS011;63608;49.572;12.348;2022-12-13T08:50:43;13.03;;;7.37;;
37097;SDS011;63608;49.572;12.348;2022-12-13T08:52:46;10.47;;;6.60;;
37097;SDS011;63608;49.572;12.348;2022-12-13T08:54:48;9.90;;;6.97;;
37097;SDS011;63608;49.572;12.348;2022-12-13T08:56:51;9.00;;;7.20;;
37097;SDS011;63608;49.572;12.348;2022-12-13T08:58:54;10.90;;;7.27;;
37097;SDS011;63608;49.572;12.348;2022-12-13T09:01:03;9.77;;;7.03;;
37097;SDS011;63608;49.572;12.348;2022-12-13T09:03:08;12.33;;;7.50;;
37097;SDS011;63608;49.572;12.348;2022-12-13T09:05:13;11.73;;;7.73;;
37097;SDS011;63608;49.572;12.348;2022-12-13T09:07:17;11.37;;;7.60;;
37097;SDS011;63608;49.572;12.348;2022-12-13T09:09:26;14.00;;;8.20;;
37097;SDS011;63608;49.572;12.348;2022-12-13T09:11:29;14.40;;;8.93;;
37097;SDS011;63608;49.572;12.348;2022-12-13T09:13:36;12.97;;;8.80;;
37097;SDS011;63608;49.572;12.348;2022-12-13T09:15:39;16.87;;;8.47;;
37097;SDS011;63608;49.572;12.348;2022-12-13T09:17:46;12.30;;;7.90;;
37097;SDS011;63608;49.572;12.348;2022-12-13T09:19:49;13.07;;;9.03;;
37097;SDS011;63608;49.572;12.348;2022-12-13T09:21:54;13.73;;;8.67;;
37097;SDS011;63608;49.572;12.348;2022-12-13T09:23:57;14.30;;;8.90;;
37097;SDS011;63608;49.572;12.348;2022-12-13T09:25:59;13.63;;;9.13;;
37097;SDS011;63608;49.572;12.348;2022-12-13T09:28:01;14.13;;;9.03;;
37097;SDS011;63608;49.572;12.348;2022-12-13T09:30:05;12.33;;;9.30;;
37097;SDS011;63608;49.572;12.348;2022-12-13T09:32:12;12.07;;;8.40;;
37097;SDS011;63608;49.572;12.348;2022-12-13T09:34:14;14.60;;;9.13;;
37097;SDS011;63608;49.572;12.348;2022-12-13T09:36:18;13.40;;;9.00;;
37097;SDS011;63608;49.572;12.348;2022-12-13T09:38:23;13.23;;;8.33;;
37097;SDS011;63608;49.572;12.348;2022-12-13T09:40:26;13.00;;;8.37;;
37097;SDS011;63608;49.572;12.348;2022-12-13T09:42:29;13.37;;;8.63;;
37097;SDS011;63608;49.572;12.348;2022-12-13T09:44:37;13.40;;;9.17;;
37097;SDS011;63608;49.572;12.348;2022-12-13T09:46:41;14.63;;;9.43;;
37097;SDS011;63608;49.572;12.348;2022-12-13T09:48:45;13.57;;;8.73;;
37097;SDS011;63608;49.572;12.348;2022-12-13T09:50:47;13.20;;;9.00;;
37097;SDS011;63608;49.572;12.348;2022-12-13T09:52:51;12.83;;;9.13;;
37097;SDS011;63608;49.572;12.348;2022-12-13T09:54:56;13.27;;;9.30;;
37097;SDS011;63608;49.572;12.348;2022-12-13T09:56:59;12.83;;;9.33;;
37097;SDS011;63608;49.572;12.348;2022-12-13T09:59:10;12.80;;;8.67;;
37097;SDS011;63608;49.572;12.348;2022-12-13T10:01:14;12.03;;;8.00;;
37097;SDS011;63608;49.572;12.348;2022-12-13T10:03:17;12.17;;;8.53;;
37097;SDS011;63608;49.572;12.348;2022-12-13T10:05:21;12.50;;;8.40;;
37097;SDS011;63608;49.572;12.348;2022-12-13T10:07:29;13.30;;;9.53;;
37097;SDS011;63608;49.572;12.348;2022-12-13T10:09:31;13.63;;;8.90;;
37097;SDS011;63608;49.572;12.348;2022-12-13T10:11:44;13.00;;;8.93;;
37097;SDS011;63608;49.572;12.348;2022-12-13T10:13:51;14.57;;;8.83;;
37097;SDS011;63608;49.572;12.348;2022-12-13T10:15:56;12.53;;;9.03;;
37097;SDS011;63608;49.572;12.348;2022-12-13T10:18:01;14.57;;;8.30;;
37097;SDS011;63608;49.572;12.348;2022-12-13T10:20:11;12.70;;;8.50;;
37097;SDS011;63608;49.572;12.348;2022-12-13T10:22:20;13.00;;;8.73;;
37097;SDS011;63608;49.572;12.348;2022-12-13T10:24:24;12.87;;;8.53;;
37097;SDS011;63608;49.572;12.348;2022-12-13T10:26:33;21.93;;;10.83;;
37097;SDS011;63608;49.572;12.348;2022-12-13T10:28:40;16.67;;;10.63;;
37097;SDS011;63608;49.572;12.348;2022-12-13T10:30:44;12.80;;;8.73;;
37097;SDS011;63608;49.572;12.348;2022-12-13T10:32:48;14.37;;;9.37;;
37097;SDS011;63608;49.572;12.348;2022-12-13T10:34:54;14.07;;;9.70;;
37097;SDS011;63608;49.572;12.348;2022-12-13T10:36:58;12.27;;;9.20;;
37097;SDS011;63608;49.572;12.348;2022-12-13T10:39:02;10.60;;;8.33;;
37097;SDS011;63608;49.572;12.348;2022-12-13T10:41:25;12.13;;;8.80;;
37097;SDS011;63608;49.572;12.348;2022-12-13T10:43:29;11.97;;;8.00;;
37097;SDS011;63608;49.572;12.348;2022-12-13T10:45:34;10.60;;;7.80;;
37097;SDS011;63608;49.572;12.348;2022-12-13T10:47:39;11.90;;;7.20;;
37097;SDS011;63608;49.572;12.348;2022-12-13T10:49:52;9.73;;;7.47;;
37097;SDS011;63608;49.572;12.348;2022-12-13T10:51:55;16.03;;;8.23;;
37097;SDS011;63608;49.572;12.348;2022-12-13T10:53:58;8.00;;;6.80;;
37097;SDS011;63608;49.572;12.348;2022-12-13T10:56:01;10.20;;;7.30;;
37097;SDS011;63608;49.572;12.348;2022-12-13T10:58:15;8.43;;;6.63;;
37097;SDS011;63608;49.572;12.348;2022-12-13T11:00:30;9.80;;;7.30;;
37097;SDS011;63608;49.572;12.348;2022-12-13T11:02:38;7.93;;;6.83;;
37097;SDS011;63608;49.572;12.348;2022-12-13T11:04:41;8.97;;;6.63;;
37097;SDS011;63608;49.572;12.348;2022-12-13T11:06:44;9.00;;;7.03;;
37097;SDS011;63608;49.572;12.348;2022-12-13T11:08:49;8.77;;;7.00;;
37097;SDS011;63608;49.572;12.348;2022-12-13T11:10:58;10.60;;;6.43;;
37097;SDS011;63608;49.572;12.348;2022-12-13T11:13:02;8.20;;;6.57;;
37097;SDS011;63608;49.572;12.348;2022-12-13T11:15:06;7.30;;;6.00;;
37097;SDS011;63608;49.572;12.348;2022-12-13T11:17:18;7.37;;;6.23;;
37097;SDS011;63608;49.572;12.348;2022-12-13T11:19:25;7.87;;;6.20;;
37097;SDS011;63608;49.572;12.348;2022-12-13T11:21:30;7.40;;;6.00;;
37097;SDS011;63608;49.572;12.348;2022-12-13T11:23:35;7.80;;;6.10;;
37097;SDS011;63608;49.572;12.348;2022-12-13T11:25:43;7.03;;;6.00;;
37097;SDS011;63608;49.572;12.348;2022-12-13T11:27:48;7.97;;;6.33;;
37097;SDS011;63608;49.572;12.348;2022-12-13T11:30:09;8.60;;;6.00;;
37097;SDS011;63608;49.572;12.348;2022-12-13T11:32:16;7.67;;;5.87;;
37097;SDS011;63608;49.572;12.348;2022-12-13T11:34:24;7.90;;;6.67;;
37097;SDS011;63608;49.572;12.348;2022-12-13T11:36:34;7.70;;;6.23;;
37097;SDS011;63608;49.572;12.348;2022-12-13T11:38:47;8.40;;;6.37;;
37097;SDS011;63608;49.572;12.348;2022-12-13T11:40:58;7.63;;;6.57;;
37097;SDS011;63608;49.572;12.348;2022-12-13T11:43:13;9.90;;;6.50;;
37097;SDS011;63608;49.572;12.348;2022-12-13T11:45:19;7.70;;;6.23;;
37097;SDS011;63608;49.572;12.348;2022-12-13T11:47:26;8.60;;;6.70;;
37097;SDS011;63608;49.572;12.348;2022-12-13T11:49:36;7.47;;;6.30;;
37097;SDS011;63608;49.572;12.348;2022-12-13T11:51:40;10.33;;;6.43;;
37097;SDS011;63608;49.572;12.348;2022-12-13T11:53:48;8.07;;;6.70;;
37097;SDS011;63608;49.572;12.348;2022-12-13T11:55:56;9.03;;;7.00;;
37097;SDS011;63608;49.572;12.348;2022-12-13T11:58:03;8.60;;;7.20;;
37097;SDS011;63608;49.572;12.348;2022-12-13T12:00:16;7.70;;;6.90;;
37097;SDS011;63608;49.572;12.348;2022-12-13T12:02:30;9.73;;;7.10;;
37097;SDS011;63608;49.572;12.348;2022-12-13T12:04:35;10.33;;;7.70;;
37097;SDS011;63608;49.572;12.348;2022-12-13T12:06:42;7.70;;;6.67;;
37097;SDS011;63608;49.572;12.348;2022-12-13T12:08:52;8.70;;;6.30;;
37097;SDS011;63608;49.572;12.348;2022-12-13T12:11:00;9.07;;;6.20;;
37097;SDS011;63608;49.572;12.348;2022-12-13T12:13:07;7.33;;;6.27;;
37097;SDS011;63608;49.572;12.348;2022-12-13T12:15:16;9.13;;;6.77;;
37097;SDS011;63608;49.572;12.348;2022-12-13T12:17:22;9.33;;;6.37;;
37097;SDS011;63608;49.572;12.348;2022-12-13T12:19:29;8.47;;;6.77;;
37097;SDS011;63608;49.572;12.348;2022-12-13T12:21:41;8.27;;;6.87;;
37097;SDS011;63608;49.572;12.348;2022-12-13T12:23:53;10.60;;;6.70;;